sensor_id;sensor_type;location;lat;lon;timestamp;temperature;humidity
23160;DHT22;11748;50.844;4.396;2022-08-19T00:01:03;22.00;99.90
23160;DHT22;11748;50.844;4.396;2022-08-19T00:03:29;21.90;99.90
23160;DHT22;11748;50.844;4.396;2022-08-19T00:05:55;21.80;99.90
23160;DHT22;11748;50.844;4.396;2022-08-19T00:08:20;21.80;99.90
23160;DHT22;11748;50.844;4.396;2022-08-19T00:10:46;21.90;99.90
23160;DHT22;11748;50.844;4.396;2022-08-19T00:13:13;21.80;99.90
23160;DHT22;11748;50.844;4.396;2022-08-19T00:15:40;21.80;99.90
23160;DHT22;11748;50.844;4.396;2022-08-19T00:18:10;21.80;99.90
23160;DHT22;11748;50.844;4.396;2022-08-19T00:20:35;21.80;99.90
23160;DHT22;11748;50.844;4.396;2022-08-19T00:23:01;21.80;99.90
23160;DHT22;11748;50.844;4.396;2022-08-19T00:25:29;21.70;99.90
23160;DHT22;11748;50.844;4.396;2022-08-19T00:30:24;21.70;99.90
23160;DHT22;11748;50.844;4.396;2022-08-19T00:32:51;21.70;99.90
23160;DHT22;11748;50.844;4.396;2022-08-19T00:35:16;21.60;99.90
23160;DHT22;11748;50.844;4.396;2022-08-19T00:37:43;21.60;99.90
23160;DHT22;11748;50.844;4.396;2022-08-19T00:40:11;21.70;99.90
23160;DHT22;11748;50.844;4.396;2022-08-19T00:42:37;21.60;99.90
23160;DHT22;11748;50.844;4.396;2022-08-19T00:45:05;21.60;99.90
23160;DHT22;11748;50.844;4.396;2022-08-19T00:47:35;21.60;99.90
23160;DHT22;11748;50.844;4.396;2022-08-19T00:50:01;21.70;99.90
23160;DHT22;11748;50.844;4.396;2022-08-19T00:52:35;21.80;99.90
23160;DHT22;11748;50.844;4.396;2022-08-19T00:55:02;21.80;99.90
23160;DHT22;11748;50.844;4.396;2022-08-19T00:57:30;21.80;99.90
23160;DHT22;11748;50.844;4.396;2022-08-19T00:59:57;21.80;99.90
23160;DHT22;11748;50.844;4.396;2022-08-19T01:02:23;21.80;99.90
23160;DHT22;11748;50.844;4.396;2022-08-19T01:04:49;21.90;99.90
23160;DHT22;11748;50.844;4.396;2022-08-19T01:07:15;21.80;99.90
23160;DHT22;11748;50.844;4.396;2022-08-19T01:09:40;21.80;99.90
23160;DHT22;11748;50.844;4.396;2022-08-19T01:12:06;21.80;99.90
23160;DHT22;11748;50.844;4.396;2022-08-19T01:14:32;21.70;99.90
23160;DHT22;11748;50.844;4.396;2022-08-19T01:16:58;21.70;99.90
23160;DHT22;11748;50.844;4.396;2022-08-19T01:19:31;21.70;99.90
23160;DHT22;11748;50.844;4.396;2022-08-19T01:22:01;21.60;99.90
23160;DHT22;11748;50.844;4.396;2022-08-19T01:24:27;21.70;99.90
23160;DHT22;11748;50.844;4.396;2022-08-19T01:26:53;21.70;99.90
23160;DHT22;11748;50.844;4.396;2022-08-19T01:29:20;21.70;99.90
23160;DHT22;11748;50.844;4.396;2022-08-19T01:31:46;21.50;99.90
23160;DHT22;11748;50.844;4.396;2022-08-19T01:34:12;21.40;99.90
23160;DHT22;11748;50.844;4.396;2022-08-19T01:36:42;21.30;99.90
23160;DHT22;11748;50.844;4.396;2022-08-19T01:39:13;21.20;99.90
23160;DHT22;11748;50.844;4.396;2022-08-19T01:41:39;21.10;99.90
23160;DHT22;11748;50.844;4.396;2022-08-19T01:44:05;21.00;99.90
23160;DHT22;11748;50.844;4.396;2022-08-19T01:46:31;21.00;99.90
23160;DHT22;11748;50.844;4.396;2022-08-19T01:48:57;21.10;99.90
23160;DHT22;11748;50.844;4.396;2022-08-19T01:51:23;21.20;99.90
23160;DHT22;11748;50.844;4.396;2022-08-19T01:53:50;21.10;99.90
23160;DHT22;11748;50.844;4.396;2022-08-19T01:56:16;21.20;99.90
23160;DHT22;11748;50.844;4.396;2022-08-19T01:58:45;21.10;99.90
23160;DHT22;11748;50.844;4.396;2022-08-19T02:01:13;21.20;99.90
23160;DHT22;11748;50.844;4.396;2022-08-19T02:03:39;21.10;99.90
23160;DHT22;11748;50.844;4.396;2022-08-19T02:06:05;21.10;99.90
23160;DHT22;11748;50.844;4.396;2022-08-19T02:08:31;21.10;99.90
23160;DHT22;11748;50.844;4.396;2022-08-19T02:10:58;21.20;99.90
23160;DHT22;11748;50.844;4.396;2022-08-19T02:13:24;21.00;99.90
23160;DHT22;11748;50.844;4.396;2022-08-19T02:15:50;20.90;99.90
23160;DHT22;11748;50.844;4.396;2022-08-19T02:18:15;20.80;99.90
23160;DHT22;11748;50.844;4.396;2022-08-19T02:20:41;20.70;99.90
23160;DHT22;11748;50.844;4.396;2022-08-19T02:23:09;20.60;99.90
23160;DHT22;11748;50.844;4.396;2022-08-19T02:25:35;20.60;99.90
23160;DHT22;11748;50.844;4.396;2022-08-19T02:28:01;20.50;99.90
23160;DHT22;11748;50.844;4.396;2022-08-19T02:30:27;20.60;99.90
23160;DHT22;11748;50.844;4.396;2022-08-19T02:32:53;20.50;99.90
23160;DHT22;11748;50.844;4.396;2022-08-19T02:35:19;20.50;99.90
23160;DHT22;11748;50.844;4.396;2022-08-19T02:37:45;20.60;99.90
23160;DHT22;11748;50.844;4.396;2022-08-19T02:40:30;20.70;99.90
23160;DHT22;11748;50.844;4.396;2022-08-19T02:43:00;20.60;99.90
23160;DHT22;11748;50.844;4.396;2022-08-19T02:45:26;20.60;99.90
23160;DHT22;11748;50.844;4.396;2022-08-19T02:47:51;20.70;99.90
23160;DHT22;11748;50.844;4.396;2022-08-19T02:50:18;20.60;99.90
23160;DHT22;11748;50.844;4.396;2022-08-19T02:52:43;20.60;99.90
23160;DHT22;11748;50.844;4.396;2022-08-19T02:55:10;20.60;99.90
23160;DHT22;11748;50.844;4.396;2022-08-19T02:57:35;20.20;99.90
23160;DHT22;11748;50.844;4.396;2022-08-19T03:00:06;20.10;99.90
23160;DHT22;11748;50.844;4.396;2022-08-19T03:02:32;20.10;99.90
23160;DHT22;11748;50.844;4.396;2022-08-19T03:04:57;20.00;99.90
23160;DHT22;11748;50.844;4.396;2022-08-19T03:07:23;20.00;99.90
23160;DHT22;11748;50.844;4.396;2022-08-19T03:09:49;20.10;99.90
23160;DHT22;11748;50.844;4.396;2022-08-19T03:12:15;20.10;99.90
23160;DHT22;11748;50.844;4.396;2022-08-19T03:14:40;20.10;99.90
23160;DHT22;11748;50.844;4.396;2022-08-19T03:17:06;20.00;99.90
23160;DHT22;11748;50.844;4.396;2022-08-19T03:19:31;19.90;99.90
23160;DHT22;11748;50.844;4.396;2022-08-19T03:21:57;19.80;99.90
23160;DHT22;11748;50.844;4.396;2022-08-19T03:24:23;19.70;99.90
23160;DHT22;11748;50.844;4.396;2022-08-19T03:26:53;19.70;99.90
23160;DHT22;11748;50.844;4.396;2022-08-19T03:29:22;19.70;99.90
23160;DHT22;11748;50.844;4.396;2022-08-19T03:31:47;19.70;99.90
23160;DHT22;11748;50.844;4.396;2022-08-19T03:34:17;19.60;99.90
23160;DHT22;11748;50.844;4.396;2022-08-19T03:36:43;19.50;99.90
23160;DHT22;11748;50.844;4.396;2022-08-19T03:39:09;19.50;99.90
23160;DHT22;11748;50.844;4.396;2022-08-19T03:41:36;19.50;99.90
23160;DHT22;11748;50.844;4.396;2022-08-19T03:44:02;19.40;99.90
23160;DHT22;11748;50.844;4.396;2022-08-19T03:46:30;19.40;99.90
23160;DHT22;11748;50.844;4.396;2022-08-19T03:48:56;19.30;99.90
23160;DHT22;11748;50.844;4.396;2022-08-19T03:51:24;19.30;99.90
23160;DHT22;11748;50.844;4.396;2022-08-19T03:53:50;19.40;99.90
23160;DHT22;11748;50.844;4.396;2022-08-19T03:56:16;19.50;99.90
23160;DHT22;11748;50.844;4.396;2022-08-19T03:58:42;19.50;99.90
23160;DHT22;11748;50.844;4.396;2022-08-19T04:01:08;19.50;99.90
23160;DHT22;11748;50.844;4.396;2022-08-19T04:03:35;19.50;99.90
23160;DHT22;11748;50.844;4.396;2022-08-19T04:06:15;19.40;99.90
23160;DHT22;11748;50.844;4.396;2022-08-19T04:08:42;19.30;99.90
23160;DHT22;11748;50.844;4.396;2022-08-19T04:11:12;19.20;99.90
23160;DHT22;11748;50.844;4.396;2022-08-19T04:13:37;19.10;99.90
23160;DHT22;11748;50.844;4.396;2022-08-19T04:16:03;19.00;99.90
23160;DHT22;11748;50.844;4.396;2022-08-19T04:18:29;18.90;99.90
23160;DHT22;11748;50.844;4.396;2022-08-19T04:20:55;19.00;99.90
23160;DHT22;11748;50.844;4.396;2022-08-19T04:23:22;18.90;99.90
23160;DHT22;11748;50.844;4.396;2022-08-19T04:25:47;18.80;99.90
23160;DHT22;11748;50.844;4.396;2022-08-19T04:28:13;18.80;99.90
23160;DHT22;11748;50.844;4.396;2022-08-19T04:30:40;18.80;99.90
23160;DHT22;11748;50.844;4.396;2022-08-19T04:33:06;18.80;99.90
23160;DHT22;11748;50.844;4.396;2022-08-19T04:35:35;18.80;99.90
23160;DHT22;11748;50.844;4.396;2022-08-19T04:38:01;18.80;99.90
23160;DHT22;11748;50.844;4.396;2022-08-19T04:40:27;18.90;99.90
23160;DHT22;11748;50.844;4.396;2022-08-19T04:43:11;18.90;99.90
23160;DHT22;11748;50.844;4.396;2022-08-19T04:45:39;18.70;99.90
23160;DHT22;11748;50.844;4.396;2022-08-19T04:48:04;18.80;99.90
23160;DHT22;11748;50.844;4.396;2022-08-19T04:50:31;18.80;99.90
23160;DHT22;11748;50.844;4.396;2022-08-19T04:52:58;18.90;99.90
23160;DHT22;11748;50.844;4.396;2022-08-19T04:55:23;18.80;99.90
23160;DHT22;11748;50.844;4.396;2022-08-19T04:57:50;18.80;99.90
23160;DHT22;11748;50.844;4.396;2022-08-19T05:00:16;19.00;99.90
23160;DHT22;11748;50.844;4.396;2022-08-19T05:02:42;19.20;99.90
23160;DHT22;11748;50.844;4.396;2022-08-19T05:05:07;19.20;99.90
23160;DHT22;11748;50.844;4.396;2022-08-19T05:07:36;19.10;99.90
23160;DHT22;11748;50.844;4.396;2022-08-19T05:10:06;19.00;99.90
23160;DHT22;11748;50.844;4.396;2022-08-19T05:12:32;19.20;99.90
23160;DHT22;11748;50.844;4.396;2022-08-19T05:14:58;19.20;99.90
23160;DHT22;11748;50.844;4.396;2022-08-19T05:17:26;19.30;99.90
23160;DHT22;11748;50.844;4.396;2022-08-19T05:19:53;19.20;99.90
23160;DHT22;11748;50.844;4.396;2022-08-19T05:22:37;19.30;99.90
23160;DHT22;11748;50.844;4.396;2022-08-19T05:25:05;19.40;99.90
23160;DHT22;11748;50.844;4.396;2022-08-19T05:27:31;19.50;99.90
23160;DHT22;11748;50.844;4.396;2022-08-19T05:29:57;19.70;99.90
23160;DHT22;11748;50.844;4.396;2022-08-19T05:32:22;19.70;99.90
23160;DHT22;11748;50.844;4.396;2022-08-19T05:34:48;19.80;99.90
23160;DHT22;11748;50.844;4.396;2022-08-19T05:37:14;19.80;99.90
23160;DHT22;11748;50.844;4.396;2022-08-19T05:39:40;19.80;99.90
23160;DHT22;11748;50.844;4.396;2022-08-19T05:42:09;19.90;99.90
23160;DHT22;11748;50.844;4.396;2022-08-19T05:44:38;20.00;99.90
23160;DHT22;11748;50.844;4.396;2022-08-19T05:47:05;19.90;99.90
23160;DHT22;11748;50.844;4.396;2022-08-19T05:49:31;19.80;99.90
23160;DHT22;11748;50.844;4.396;2022-08-19T05:51:58;19.80;99.90
23160;DHT22;11748;50.844;4.396;2022-08-19T05:54:26;19.80;99.90
23160;DHT22;11748;50.844;4.396;2022-08-19T05:56:52;19.70;99.90
23160;DHT22;11748;50.844;4.396;2022-08-19T05:59:19;19.60;99.90
23160;DHT22;11748;50.844;4.396;2022-08-19T06:01:47;19.60;99.90
23160;DHT22;11748;50.844;4.396;2022-08-19T06:07:09;19.90;99.90
23160;DHT22;11748;50.844;4.396;2022-08-19T06:09:36;19.90;99.90
23160;DHT22;11748;50.844;4.396;2022-08-19T06:12:11;19.90;99.90
23160;DHT22;11748;50.844;4.396;2022-08-19T06:14:40;20.20;99.90
23160;DHT22;11748;50.844;4.396;2022-08-19T06:17:06;20.50;99.90
23160;DHT22;11748;50.844;4.396;2022-08-19T06:19:32;20.60;99.90
23160;DHT22;11748;50.844;4.396;2022-08-19T06:21:59;20.90;99.90
23160;DHT22;11748;50.844;4.396;2022-08-19T06:24:25;21.10;99.90
23160;DHT22;11748;50.844;4.396;2022-08-19T06:26:53;21.10;99.90
23160;DHT22;11748;50.844;4.396;2022-08-19T06:29:20;21.10;99.90
23160;DHT22;11748;50.844;4.396;2022-08-19T06:31:49;20.80;99.90
23160;DHT22;11748;50.844;4.396;2022-08-19T06:34:17;20.70;99.90
23160;DHT22;11748;50.844;4.396;2022-08-19T06:36:45;20.80;99.90
23160;DHT22;11748;50.844;4.396;2022-08-19T06:39:12;21.00;99.90
23160;DHT22;11748;50.844;4.396;2022-08-19T06:41:40;21.20;99.90
23160;DHT22;11748;50.844;4.396;2022-08-19T06:44:06;21.10;99.90
23160;DHT22;11748;50.844;4.396;2022-08-19T06:46:33;21.30;99.90
23160;DHT22;11748;50.844;4.396;2022-08-19T06:49:00;21.60;99.90
23160;DHT22;11748;50.844;4.396;2022-08-19T06:51:25;21.80;99.90
23160;DHT22;11748;50.844;4.396;2022-08-19T06:53:52;21.60;99.90
23160;DHT22;11748;50.844;4.396;2022-08-19T06:56:19;21.50;99.90
23160;DHT22;11748;50.844;4.396;2022-08-19T06:58:47;21.20;99.90
23160;DHT22;11748;50.844;4.396;2022-08-19T07:01:15;21.20;99.90
23160;DHT22;11748;50.844;4.396;2022-08-19T07:03:41;21.10;99.90
23160;DHT22;11748;50.844;4.396;2022-08-19T07:06:11;21.20;99.90
23160;DHT22;11748;50.844;4.396;2022-08-19T07:08:39;21.30;99.90
23160;DHT22;11748;50.844;4.396;2022-08-19T07:11:08;21.40;99.90
23160;DHT22;11748;50.844;4.396;2022-08-19T07:13:35;21.40;99.90
23160;DHT22;11748;50.844;4.396;2022-08-19T07:16:03;21.20;99.90
23160;DHT22;11748;50.844;4.396;2022-08-19T07:18:29;21.40;99.90
23160;DHT22;11748;50.844;4.396;2022-08-19T07:21:06;21.60;99.90
23160;DHT22;11748;50.844;4.396;2022-08-19T07:23:32;21.70;99.90
23160;DHT22;11748;50.844;4.396;2022-08-19T07:25:58;21.90;99.90
23160;DHT22;11748;50.844;4.396;2022-08-19T07:28:26;22.00;99.90
23160;DHT22;11748;50.844;4.396;2022-08-19T07:30:53;22.20;99.90
23160;DHT22;11748;50.844;4.396;2022-08-19T07:33:19;22.00;99.90
23160;DHT22;11748;50.844;4.396;2022-08-19T07:35:46;21.80;99.90
23160;DHT22;11748;50.844;4.396;2022-08-19T07:38:11;22.00;99.90
23160;DHT22;11748;50.844;4.396;2022-08-19T07:40:38;21.90;99.90
23160;DHT22;11748;50.844;4.396;2022-08-19T07:43:05;21.90;99.90
23160;DHT22;11748;50.844;4.396;2022-08-19T07:45:31;21.70;99.90
23160;DHT22;11748;50.844;4.396;2022-08-19T07:48:00;21.70;99.90
23160;DHT22;11748;50.844;4.396;2022-08-19T07:50:32;21.80;99.90
23160;DHT22;11748;50.844;4.396;2022-08-19T07:52:58;21.90;99.90
23160;DHT22;11748;50.844;4.396;2022-08-19T07:55:25;22.00;99.90
23160;DHT22;11748;50.844;4.396;2022-08-19T07:57:51;21.90;99.90
23160;DHT22;11748;50.844;4.396;2022-08-19T08:00:17;22.10;99.90
23160;DHT22;11748;50.844;4.396;2022-08-19T08:02:43;22.30;99.90
23160;DHT22;11748;50.844;4.396;2022-08-19T08:05:09;22.50;99.90
23160;DHT22;11748;50.844;4.396;2022-08-19T08:07:54;22.60;99.90
23160;DHT22;11748;50.844;4.396;2022-08-19T08:10:38;22.90;99.90
23160;DHT22;11748;50.844;4.396;2022-08-19T08:13:03;22.90;99.90
23160;DHT22;11748;50.844;4.396;2022-08-19T08:15:30;23.20;99.90
23160;DHT22;11748;50.844;4.396;2022-08-19T08:17:56;23.00;99.90
23160;DHT22;11748;50.844;4.396;2022-08-19T08:20:23;23.30;99.90
23160;DHT22;11748;50.844;4.396;2022-08-19T08:22:48;23.30;99.90
23160;DHT22;11748;50.844;4.396;2022-08-19T08:25:33;23.50;99.90
23160;DHT22;11748;50.844;4.396;2022-08-19T08:28:00;23.50;99.90
23160;DHT22;11748;50.844;4.396;2022-08-19T08:30:27;23.70;99.90
23160;DHT22;11748;50.844;4.396;2022-08-19T08:32:53;23.90;99.90
23160;DHT22;11748;50.844;4.396;2022-08-19T08:35:20;23.70;99.90
23160;DHT22;11748;50.844;4.396;2022-08-19T08:37:47;23.70;99.90
23160;DHT22;11748;50.844;4.396;2022-08-19T08:43:19;23.50;99.90
23160;DHT22;11748;50.844;4.396;2022-08-19T08:45:50;23.80;99.90
23160;DHT22;11748;50.844;4.396;2022-08-19T08:48:22;23.50;99.90
23160;DHT22;11748;50.844;4.396;2022-08-19T08:50:49;23.50;99.90
23160;DHT22;11748;50.844;4.396;2022-08-19T08:53:18;23.40;99.90
23160;DHT22;11748;50.844;4.396;2022-08-19T08:55:44;23.40;99.90
23160;DHT22;11748;50.844;4.396;2022-08-19T08:58:12;23.50;99.90
23160;DHT22;11748;50.844;4.396;2022-08-19T09:00:43;23.50;99.90
23160;DHT22;11748;50.844;4.396;2022-08-19T09:03:12;23.50;99.90
23160;DHT22;11748;50.844;4.396;2022-08-19T09:05:48;23.70;99.90
23160;DHT22;11748;50.844;4.396;2022-08-19T09:08:18;23.50;99.90
23160;DHT22;11748;50.844;4.396;2022-08-19T09:10:53;23.20;99.90
23160;DHT22;11748;50.844;4.396;2022-08-19T09:16:25;23.00;99.90
23160;DHT22;11748;50.844;4.396;2022-08-19T09:18:50;23.10;99.90
23160;DHT22;11748;50.844;4.396;2022-08-19T09:21:20;23.00;99.90
23160;DHT22;11748;50.844;4.396;2022-08-19T09:23:48;23.20;99.90
23160;DHT22;11748;50.844;4.396;2022-08-19T09:26:17;23.40;99.90
23160;DHT22;11748;50.844;4.396;2022-08-19T09:28:45;23.60;99.90
23160;DHT22;11748;50.844;4.396;2022-08-19T09:31:11;23.90;99.90
23160;DHT22;11748;50.844;4.396;2022-08-19T09:33:37;23.90;99.90
23160;DHT22;11748;50.844;4.396;2022-08-19T09:36:07;23.90;99.90
23160;DHT22;11748;50.844;4.396;2022-08-19T09:38:33;24.00;99.90
23160;DHT22;11748;50.844;4.396;2022-08-19T09:41:06;24.20;99.90
23160;DHT22;11748;50.844;4.396;2022-08-19T09:43:32;24.10;99.90
23160;DHT22;11748;50.844;4.396;2022-08-19T09:46:05;24.30;99.90
23160;DHT22;11748;50.844;4.396;2022-08-19T09:48:32;24.00;99.90
23160;DHT22;11748;50.844;4.396;2022-08-19T09:51:10;23.80;99.90
23160;DHT22;11748;50.844;4.396;2022-08-19T09:53:36;23.90;99.90
23160;DHT22;11748;50.844;4.396;2022-08-19T09:56:03;23.90;99.90
23160;DHT22;11748;50.844;4.396;2022-08-19T09:58:29;24.00;99.90
23160;DHT22;11748;50.844;4.396;2022-08-19T10:00:57;23.80;99.90
23160;DHT22;11748;50.844;4.396;2022-08-19T10:03:23;23.70;99.90
23160;DHT22;11748;50.844;4.396;2022-08-19T10:05:49;23.90;99.90
23160;DHT22;11748;50.844;4.396;2022-08-19T10:08:16;24.10;99.90
23160;DHT22;11748;50.844;4.396;2022-08-19T10:10:42;24.40;99.90
23160;DHT22;11748;50.844;4.396;2022-08-19T10:13:09;24.50;99.90
23160;DHT22;11748;50.844;4.396;2022-08-19T10:15:34;24.40;99.90
23160;DHT22;11748;50.844;4.396;2022-08-19T10:18:00;24.30;99.90
23160;DHT22;11748;50.844;4.396;2022-08-19T10:20:26;24.40;99.90
23160;DHT22;11748;50.844;4.396;2022-08-19T10:22:51;24.40;99.90
23160;DHT22;11748;50.844;4.396;2022-08-19T10:25:17;24.50;99.90
23160;DHT22;11748;50.844;4.396;2022-08-19T10:27:43;24.60;99.90
23160;DHT22;11748;50.844;4.396;2022-08-19T10:30:09;24.80;99.90
23160;DHT22;11748;50.844;4.396;2022-08-19T10:32:35;24.70;99.90
23160;DHT22;11748;50.844;4.396;2022-08-19T10:35:01;24.80;99.90
23160;DHT22;11748;50.844;4.396;2022-08-19T10:37:27;24.70;99.90
23160;DHT22;11748;50.844;4.396;2022-08-19T10:39:53;24.80;99.90
23160;DHT22;11748;50.844;4.396;2022-08-19T10:42:19;24.70;99.90
23160;DHT22;11748;50.844;4.396;2022-08-19T10:44:47;24.40;99.90
23160;DHT22;11748;50.844;4.396;2022-08-19T10:47:13;24.40;99.90
23160;DHT22;11748;50.844;4.396;2022-08-19T10:49:40;24.40;99.90
23160;DHT22;11748;50.844;4.396;2022-08-19T10:52:25;24.50;99.90
23160;DHT22;11748;50.844;4.396;2022-08-19T10:55:02;24.20;99.90
23160;DHT22;11748;50.844;4.396;2022-08-19T10:57:46;24.60;99.90
23160;DHT22;11748;50.844;4.396;2022-08-19T11:00:12;24.60;99.90
23160;DHT22;11748;50.844;4.396;2022-08-19T11:02:38;24.70;99.90
23160;DHT22;11748;50.844;4.396;2022-08-19T11:05:04;24.90;99.90
23160;DHT22;11748;50.844;4.396;2022-08-19T11:07:33;24.60;99.90
23160;DHT22;11748;50.844;4.396;2022-08-19T11:09:58;24.60;99.90
23160;DHT22;11748;50.844;4.396;2022-08-19T11:12:24;24.30;99.90
23160;DHT22;11748;50.844;4.396;2022-08-19T11:14:49;24.20;99.90
23160;DHT22;11748;50.844;4.396;2022-08-19T11:17:15;24.00;99.90
23160;DHT22;11748;50.844;4.396;2022-08-19T11:19:44;24.00;99.90
23160;DHT22;11748;50.844;4.396;2022-08-19T11:22:09;24.10;99.90
23160;DHT22;11748;50.844;4.396;2022-08-19T11:24:35;24.30;99.90
23160;DHT22;11748;50.844;4.396;2022-08-19T11:27:05;24.70;99.90
23160;DHT22;11748;50.844;4.396;2022-08-19T11:29:32;25.00;99.90
23160;DHT22;11748;50.844;4.396;2022-08-19T11:31:58;24.90;99.90
23160;DHT22;11748;50.844;4.396;2022-08-19T11:34:27;24.50;99.90
23160;DHT22;11748;50.844;4.396;2022-08-19T11:36:54;24.40;99.90
23160;DHT22;11748;50.844;4.396;2022-08-19T11:39:24;24.40;99.90
23160;DHT22;11748;50.844;4.396;2022-08-19T11:41:50;24.60;99.90
23160;DHT22;11748;50.844;4.396;2022-08-19T11:44:16;24.80;99.90
23160;DHT22;11748;50.844;4.396;2022-08-19T11:46:42;24.80;99.90
23160;DHT22;11748;50.844;4.396;2022-08-19T11:49:12;25.10;99.90
23160;DHT22;11748;50.844;4.396;2022-08-19T11:51:39;25.00;99.90
23160;DHT22;11748;50.844;4.396;2022-08-19T11:54:05;25.20;99.90
23160;DHT22;11748;50.844;4.396;2022-08-19T11:56:30;25.00;99.90
23160;DHT22;11748;50.844;4.396;2022-08-19T11:58:56;24.80;99.90
23160;DHT22;11748;50.844;4.396;2022-08-19T12:01:23;24.80;99.90
23160;DHT22;11748;50.844;4.396;2022-08-19T12:03:50;24.80;99.90
23160;DHT22;11748;50.844;4.396;2022-08-19T12:06:17;25.20;99.90
23160;DHT22;11748;50.844;4.396;2022-08-19T12:08:44;25.70;99.90
23160;DHT22;11748;50.844;4.396;2022-08-19T12:11:10;26.10;99.90
23160;DHT22;11748;50.844;4.396;2022-08-19T12:13:36;26.20;99.90
23160;DHT22;11748;50.844;4.396;2022-08-19T12:16:12;26.00;99.90
23160;DHT22;11748;50.844;4.396;2022-08-19T12:18:39;26.10;99.90
23160;DHT22;11748;50.844;4.396;2022-08-19T12:21:08;26.30;99.90
23160;DHT22;11748;50.844;4.396;2022-08-19T12:23:36;26.60;99.90
23160;DHT22;11748;50.844;4.396;2022-08-19T12:26:02;26.70;99.90
23160;DHT22;11748;50.844;4.396;2022-08-19T12:28:28;26.80;99.90
23160;DHT22;11748;50.844;4.396;2022-08-19T12:30:53;26.40;99.90
23160;DHT22;11748;50.844;4.396;2022-08-19T12:33:21;26.00;99.90
23160;DHT22;11748;50.844;4.396;2022-08-19T12:35:50;26.10;99.90
23160;DHT22;11748;50.844;4.396;2022-08-19T12:38:15;26.30;99.90
23160;DHT22;11748;50.844;4.396;2022-08-19T12:40:45;26.20;99.90
23160;DHT22;11748;50.844;4.396;2022-08-19T12:43:11;25.90;99.90
23160;DHT22;11748;50.844;4.396;2022-08-19T12:45:36;25.70;99.90
23160;DHT22;11748;50.844;4.396;2022-08-19T12:48:03;25.50;99.90
23160;DHT22;11748;50.844;4.396;2022-08-19T12:50:29;25.60;99.90
23160;DHT22;11748;50.844;4.396;2022-08-19T12:52:56;25.70;99.90
23160;DHT22;11748;50.844;4.396;2022-08-19T12:55:22;26.00;99.90
23160;DHT22;11748;50.844;4.396;2022-08-19T12:57:47;26.10;99.90
23160;DHT22;11748;50.844;4.396;2022-08-19T13:00:15;26.20;99.90
23160;DHT22;11748;50.844;4.396;2022-08-19T13:02:42;26.50;99.90
23160;DHT22;11748;50.844;4.396;2022-08-19T13:05:12;26.60;99.90
23160;DHT22;11748;50.844;4.396;2022-08-19T13:07:39;26.40;99.90
23160;DHT22;11748;50.844;4.396;2022-08-19T13:10:07;26.20;99.90
23160;DHT22;11748;50.844;4.396;2022-08-19T13:12:33;26.40;99.90
23160;DHT22;11748;50.844;4.396;2022-08-19T13:14:59;26.70;99.90
23160;DHT22;11748;50.844;4.396;2022-08-19T13:17:24;27.00;99.90
23160;DHT22;11748;50.844;4.396;2022-08-19T13:19:50;27.30;99.90
23160;DHT22;11748;50.844;4.396;2022-08-19T13:22:16;26.80;99.90
23160;DHT22;11748;50.844;4.396;2022-08-19T13:24:41;26.40;99.90
23160;DHT22;11748;50.844;4.396;2022-08-19T13:27:08;26.40;99.90
23160;DHT22;11748;50.844;4.396;2022-08-19T13:29:34;26.20;99.90
23160;DHT22;11748;50.844;4.396;2022-08-19T13:32:18;26.20;99.90
23160;DHT22;11748;50.844;4.396;2022-08-19T13:35:03;26.30;99.90
23160;DHT22;11748;50.844;4.396;2022-08-19T13:37:30;26.50;99.90
23160;DHT22;11748;50.844;4.396;2022-08-19T13:40:09;26.30;99.90
23160;DHT22;11748;50.844;4.396;2022-08-19T13:42:40;26.40;99.90
23160;DHT22;11748;50.844;4.396;2022-08-19T13:45:06;26.30;99.90
23160;DHT22;11748;50.844;4.396;2022-08-19T13:47:32;26.30;99.90
23160;DHT22;11748;50.844;4.396;2022-08-19T13:50:03;26.30;99.90
23160;DHT22;11748;50.844;4.396;2022-08-19T13:52:29;26.50;99.90
23160;DHT22;11748;50.844;4.396;2022-08-19T13:54:54;26.20;99.90
23160;DHT22;11748;50.844;4.396;2022-08-19T13:57:21;26.10;99.90
23160;DHT22;11748;50.844;4.396;2022-08-19T13:59:47;26.10;99.90
23160;DHT22;11748;50.844;4.396;2022-08-19T14:02:13;26.30;99.90
23160;DHT22;11748;50.844;4.396;2022-08-19T14:04:38;26.10;99.90
23160;DHT22;11748;50.844;4.396;2022-08-19T14:07:04;25.90;99.90
23160;DHT22;11748;50.844;4.396;2022-08-19T14:09:29;26.10;99.90
23160;DHT22;11748;50.844;4.396;2022-08-19T14:11:56;26.00;99.90
23160;DHT22;11748;50.844;4.396;2022-08-19T14:14:22;26.00;99.90
23160;DHT22;11748;50.844;4.396;2022-08-19T14:16:48;25.80;99.90
23160;DHT22;11748;50.844;4.396;2022-08-19T14:19:14;25.60;99.90
23160;DHT22;11748;50.844;4.396;2022-08-19T14:21:39;25.50;99.90
23160;DHT22;11748;50.844;4.396;2022-08-19T14:24:06;24.90;99.90
23160;DHT22;11748;50.844;4.396;2022-08-19T14:26:32;24.60;99.90
23160;DHT22;11748;50.844;4.396;2022-08-19T14:28:58;24.40;99.90
23160;DHT22;11748;50.844;4.396;2022-08-19T14:31:24;24.40;99.90
23160;DHT22;11748;50.844;4.396;2022-08-19T14:33:51;24.70;99.90
23160;DHT22;11748;50.844;4.396;2022-08-19T14:36:17;24.90;99.90
23160;DHT22;11748;50.844;4.396;2022-08-19T14:38:43;24.90;99.90
23160;DHT22;11748;50.844;4.396;2022-08-19T14:43:34;25.00;99.90
23160;DHT22;11748;50.844;4.396;2022-08-19T14:46:03;24.90;99.90
23160;DHT22;11748;50.844;4.396;2022-08-19T14:48:29;25.10;99.90
23160;DHT22;11748;50.844;4.396;2022-08-19T14:50:55;25.10;99.90
23160;DHT22;11748;50.844;4.396;2022-08-19T14:53:20;24.90;99.90
23160;DHT22;11748;50.844;4.396;2022-08-19T14:55:46;24.60;99.90
23160;DHT22;11748;50.844;4.396;2022-08-19T14:58:12;24.50;99.90
23160;DHT22;11748;50.844;4.396;2022-08-19T15:00:38;24.60;99.90
23160;DHT22;11748;50.844;4.396;2022-08-19T15:03:04;25.00;99.90
23160;DHT22;11748;50.844;4.396;2022-08-19T15:05:30;25.00;99.90
23160;DHT22;11748;50.844;4.396;2022-08-19T15:07:55;25.30;99.90
23160;DHT22;11748;50.844;4.396;2022-08-19T15:10:21;25.50;99.90
23160;DHT22;11748;50.844;4.396;2022-08-19T15:12:48;25.20;99.90
23160;DHT22;11748;50.844;4.396;2022-08-19T15:15:14;25.20;99.90
23160;DHT22;11748;50.844;4.396;2022-08-19T15:17:45;25.10;99.90
23160;DHT22;11748;50.844;4.396;2022-08-19T15:20:13;25.00;99.90
23160;DHT22;11748;50.844;4.396;2022-08-19T15:22:38;25.00;99.90
23160;DHT22;11748;50.844;4.396;2022-08-19T15:25:05;25.20;99.90
23160;DHT22;11748;50.844;4.396;2022-08-19T15:27:31;25.00;99.90
23160;DHT22;11748;50.844;4.396;2022-08-19T15:29:56;25.30;99.90
23160;DHT22;11748;50.844;4.396;2022-08-19T15:32:22;24.80;99.90
23160;DHT22;11748;50.844;4.396;2022-08-19T15:34:48;24.80;99.90
23160;DHT22;11748;50.844;4.396;2022-08-19T15:37:14;24.90;99.90
23160;DHT22;11748;50.844;4.396;2022-08-19T15:39:40;25.00;99.90
23160;DHT22;11748;50.844;4.396;2022-08-19T15:42:06;25.00;99.90
23160;DHT22;11748;50.844;4.396;2022-08-19T15:44:33;25.10;99.90